Time;durP1;ratioP1;P1;durP2;ratioP2;P2;SDS_P1;SDS_P2;PMS_P1;PMS_P2;Temp;Humidity;BMP_temperature;BMP_pressure;BME280_temperature;BME280_humidity;BME280_pressure;Samples;Min_cycle;Max_cycle;Signal;HPM_P1;HPM_P2
2023/08/07 00:00:43;;;;;;;3.20;1.58;;;11.00;99.90;;;10.46;100.00;97071.34;5034556;28;20025;-37
2023/08/07 00:03:08;;;;;;;3.40;1.60;;;11.10;99.90;;;10.49;100.00;97075.63;5032339;28;20025;-36
2023/08/07 00:05:34;;;;;;;5.43;1.75;;;11.00;99.90;;;10.40;100.00;97065.47;5035102;28;20044;-37
2023/08/07 00:08:00;;;;;;;4.90;1.40;;;11.00;99.90;;;10.44;100.00;97086.34;5024527;28;20401;-37
2023/08/07 00:10:26;;;;;;;3.05;1.40;;;11.00;99.90;;;10.46;100.00;97086.28;5036025;28;20033;-37
2023/08/07 00:12:52;;;;;;;3.72;1.50;;;11.00;99.90;;;10.43;100.00;97084.66;5036310;28;20036;-37
2023/08/07 00:15:39;;;;;;;3.08;1.30;;;11.00;99.90;;;10.43;100.00;97083.81;5034537;28;20083;-37
2023/08/07 00:18:05;;;;;;;5.80;1.58;;;11.00;99.90;;;10.43;100.00;97079.38;5033609;28;20512;-37
2023/08/07 00:20:31;;;;;;;4.43;1.55;;;11.00;99.90;;;10.38;100.00;97070.81;5034224;28;20033;-37
2023/08/07 00:22:57;;;;;;;2.97;1.55;;;11.00;99.90;;;10.35;100.00;97070.06;5034328;28;20417;-37
2023/08/07 00:25:22;;;;;;;4.80;1.70;;;11.00;99.90;;;10.48;100.00;97084.44;5034650;28;20040;-37
2023/08/07 00:27:48;;;;;;;2.83;1.60;;;11.00;99.90;;;10.50;100.00;97083.47;5035000;28;20048;-37
2023/08/07 00:30:14;;;;;;;3.28;1.50;;;11.10;99.90;;;10.52;100.00;97090.47;5035442;28;20033;-37
2023/08/07 00:32:40;;;;;;;4.22;1.55;;;11.00;99.90;;;10.54;100.00;97093.91;5034473;28;20435;-37
2023/08/07 00:35:08;;;;;;;5.13;1.42;;;11.10;99.90;;;10.58;100.00;97093.69;5035746;28;20060;-37
2023/08/07 00:37:34;;;;;;;3.65;1.92;;;11.10;99.90;;;10.61;100.00;97104.13;5031657;28;20521;-37
2023/08/07 00:39:59;;;;;;;5.00;1.30;;;11.10;99.90;;;10.61;100.00;97090.94;5030857;28;20056;-37
2023/08/07 00:42:25;;;;;;;5.82;1.83;;;11.20;99.90;;;10.62;100.00;97104.97;5032156;28;20033;-37
2023/08/07 00:44:51;;;;;;;4.95;1.30;;;11.20;99.90;;;10.63;100.00;97109.34;5036561;28;20037;-37
2023/08/07 00:47:16;;;;;;;2.45;1.52;;;11.20;99.90;;;10.65;100.00;97110.13;5034246;28;20032;-37
2023/08/07 00:49:42;;;;;;;6.32;1.58;;;11.20;99.90;;;10.68;100.00;97115.28;5031463;28;20029;-37
2023/08/07 00:52:11;;;;;;;3.47;1.50;;;11.20;99.90;;;10.67;100.00;97109.13;5032641;28;20201;-37
2023/08/07 00:54:38;;;;;;;5.45;1.67;;;11.20;99.90;;;10.67;100.00;97110.91;5049236;28;20075;-37
2023/08/07 00:57:15;;;;;;;3.20;1.35;;;11.20;99.90;;;10.61;100.00;97104.13;5031926;28;20034;-37
2023/08/07 00:59:41;;;;;;;4.13;1.70;;;11.20;99.90;;;10.62;100.00;97110.25;5033470;28;20033;-37
2023/08/07 01:02:07;;;;;;;4.68;1.80;;;11.20;99.90;;;10.68;100.00;97110.00;5032854;28;20033;-37
2023/08/07 01:04:33;;;;;;;4.05;1.60;;;11.20;99.90;;;10.53;100.00;97092.19;5031709;28;20040;-37
2023/08/07 01:06:58;;;;;;;5.65;1.58;;;11.20;99.90;;;10.65;100.00;97112.75;5034968;28;20037;-37
2023/08/07 01:09:24;;;;;;;5.15;1.73;;;11.20;99.90;;;10.64;100.00;97114.56;5031633;28;20035;-37
2023/08/07 01:12:15;;;;;;;3.88;1.42;;;11.20;99.90;;;10.74;100.00;97122.06;5028003;28;20700;-37
2023/08/07 01:15:06;;;;;;;3.20;1.33;;;11.20;99.90;;;10.77;100.00;97128.09;5032267;28;20064;-37
2023/08/07 01:17:34;;;;;;;3.53;1.50;;;11.30;99.90;;;10.77;100.00;97129.88;5050168;28;20089;-37
2023/08/07 01:20:00;;;;;;;4.05;1.45;;;11.30;99.90;;;10.76;100.00;97131.63;5043526;28;20052;-37
2023/08/07 01:22:26;;;;;;;4.65;1.48;;;11.30;99.90;;;10.76;100.00;97131.63;5038963;28;20036;-37
2023/08/07 01:24:51;;;;;;;4.30;1.60;;;11.30;99.90;;;10.78;100.00;97136.84;5039405;28;20993;-37
2023/08/07 01:27:17;;;;;;;3.17;1.60;;;11.30;99.90;;;10.79;100.00;97133.31;5040406;28;20080;-37
2023/08/07 01:30:17;;;;;;;5.25;1.48;;;11.30;99.90;;;10.79;100.00;97128.88;5039025;28;20051;-38
2023/08/07 01:33:01;;;;;;;5.75;1.45;;;11.30;99.90;;;10.81;100.00;97127.03;5036583;28;20127;-37
2023/08/07 01:35:33;;;;;;;4.22;1.70;;;11.40;99.90;;;10.80;100.00;97120.06;5039021;28;20059;-37
2023/08/07 01:38:01;;;;;;;4.80;2.10;;;11.40;99.90;;;10.80;100.00;97120.06;5035867;28;20095;-37
2023/08/07 01:40:28;;;;;;;3.80;1.30;;;11.30;99.90;;;10.84;100.00;97124.25;5018787;28;20957;-37
2023/08/07 01:42:54;;;;;;;3.30;1.58;;;11.30;99.90;;;10.86;100.00;97121.56;5038892;28;21926;-38
2023/08/07 01:45:27;;;;;;;1.90;1.20;;;11.40;99.90;;;10.85;100.00;97112.78;5033441;28;20507;-38
2023/08/07 01:47:53;;;;;;;4.82;1.38;;;11.30;99.90;;;10.84;100.00;97107.59;5038247;28;20037;-37
2023/08/07 01:50:20;;;;;;;4.28;1.45;;;11.40;99.90;;;10.85;100.00;97102.22;5035002;28;20679;-37
2023/08/07 01:52:46;;;;;;;4.10;1.02;;;11.40;99.90;;;10.87;100.00;97116.22;5036623;28;20128;-37
2023/08/07 01:55:14;;;;;;;2.60;1.20;;;11.40;99.90;;;10.89;100.00;97124.94;5039630;28;20103;-37
2023/08/07 01:57:40;;;;;;;3.17;1.30;;;11.40;99.90;;;10.92;100.00;97120.44;5038119;28;20032;-37
2023/08/07 02:00:08;;;;;;;2.08;1.20;;;11.40;99.90;;;10.88;100.00;97119.72;5036484;28;20028;-37
2023/08/07 02:02:34;;;;;;;7.32;1.38;;;11.40;99.90;;;10.90;100.00;97131.06;5035106;28;20036;-37
2023/08/07 02:04:59;;;;;;;2.38;1.10;;;11.40;99.90;;;10.91;100.00;97126.63;5036991;28;20025;-37
2023/08/07 02:07:25;;;;;;;7.20;1.50;;;11.40;99.90;;;10.83;100.00;97119.91;5039219;28;20501;-37
2023/08/07 02:09:51;;;;;;;2.95;1.60;;;11.40;99.90;;;10.94;100.00;97121.22;5039022;28;20029;-37
2023/08/07 02:12:17;;;;;;;4.05;1.50;;;11.40;99.90;;;10.91;100.00;97126.63;5034206;28;20048;-37
2023/08/07 02:14:42;;;;;;;3.42;1.27;;;11.40;99.90;;;10.87;100.00;97118.88;5036637;28;20040;-37
2023/08/07 02:17:08;;;;;;;8.73;2.03;;;11.40;99.90;;;10.88;100.00;97128.47;5037829;28;20029;-37
2023/08/07 02:19:34;;;;;;;3.53;1.58;;;11.40;99.90;;;10.91;100.00;97131.91;5037131;28;20052;-37
2023/08/07 02:21:59;;;;;;;3.15;1.60;;;11.40;99.90;;;10.91;100.00;97132.78;5040721;28;20028;-37
2023/08/07 02:24:25;;;;;;;4.18;1.30;;;11.40;99.90;;;10.89;100.00;97135.47;5017408;28;20536;-37
2023/08/07 02:26:51;;;;;;;3.28;1.35;;;11.40;99.90;;;10.92;100.00;97155.59;5033065;28;21117;-37
2023/08/07 02:29:16;;;;;;;3.80;1.40;;;11.40;99.90;;;10.90;100.00;97152.16;5035074;28;20045;-37
2023/08/07 02:31:42;;;;;;;5.60;1.52;;;11.40;99.90;;;10.88;100.00;97149.59;5032729;28;20043;-37
2023/08/07 02:34:08;;;;;;;6.88;1.70;;;11.40;99.90;;;10.81;100.00;97147.28;5032708;28;20528;-37
2023/08/07 02:36:34;;;;;;;4.53;1.60;;;11.40;99.90;;;10.84;100.00;97136.59;5033822;28;20033;-37
2023/08/07 02:38:59;;;;;;;4.90;1.52;;;11.40;99.90;;;10.82;100.00;97141.94;5035804;28;20029;-38
2023/08/07 02:41:25;;;;;;;3.38;1.52;;;11.40;99.90;;;10.81;100.00;97144.63;5047064;28;20021;-37
2023/08/07 02:43:51;;;;;;;2.85;1.40;;;11.30;99.90;;;10.79;100.00;97136.78;5039305;28;20033;-37
2023/08/07 02:46:16;;;;;;;5.40;1.50;;;11.30;99.90;;;10.79;100.00;97135.94;5034450;28;20611;-37
2023/08/07 02:48:44;;;;;;;5.68;1.60;;;11.30;99.90;;;10.81;100.00;97132.31;5036103;28;20037;-37
2023/08/07 02:51:09;;;;;;;5.35;1.60;;;11.30;99.90;;;10.82;100.00;97139.31;5038008;28;20505;-37
2023/08/07 02:53:35;;;;;;;4.55;1.60;;;11.30;99.90;;;10.66;100.00;97123.25;5038765;28;20056;-37
2023/08/07 02:56:01;;;;;;;4.05;1.50;;;11.30;99.90;;;10.73;100.00;97144.97;5036989;28;20495;-37
2023/08/07 02:58:27;;;;;;;3.78;1.40;;;11.30;99.90;;;10.69;100.00;97153.91;5040537;28;20029;-37
2023/08/07 03:00:52;;;;;;;7.40;1.90;;;11.20;99.90;;;10.64;100.00;97153.22;5035606;28;20033;-38
2023/08/07 03:03:18;;;;;;;3.67;1.70;;;11.20;99.90;;;10.64;100.00;97140.94;5031960;28;20120;-37
2023/08/07 03:05:52;;;;;;;4.47;1.63;;;11.20;99.90;;;10.59;100.00;97158.72;5032622;28;20659;-37
2023/08/07 03:08:18;;;;;;;5.45;1.48;;;11.10;99.90;;;10.50;100.00;97151.19;5040078;28;20028;-37
2023/08/07 03:10:58;;;;;;;8.25;1.95;;;11.00;99.90;;;10.47;100.00;97144.25;5033523;28;20058;-37
2023/08/07 03:13:27;;;;;;;6.20;1.77;;;11.00;99.90;;;10.52;100.00;97140.56;5034254;28;20037;-37
2023/08/07 03:16:00;;;;;;;3.92;1.73;;;11.00;99.90;;;10.55;100.00;97150.97;5031020;28;20059;-37
2023/08/07 03:18:27;;;;;;;3.47;1.50;;;11.00;99.90;;;10.53;100.00;97151.03;5034572;28;20036;-37
2023/08/07 03:20:55;;;;;;;4.20;1.55;;;11.00;99.90;;;10.53;100.00;97158.09;5035819;28;20029;-37
2023/08/07 03:23:22;;;;;;;6.55;1.80;;;11.10;99.90;;;10.55;100.00;97161.53;5039624;28;20021;-37
2023/08/07 03:25:48;;;;;;;4.35;1.60;;;11.00;99.90;;;10.53;100.00;97160.72;5031749;28;20033;-37
2023/08/07 03:28:14;;;;;;;4.25;1.80;;;11.00;99.90;;;10.53;100.00;97161.59;5037568;28;20032;-37
2023/08/07 03:30:40;;;;;;;4.88;1.40;;;11.10;99.90;;;10.59;100.00;97163.13;5034715;28;20033;-37
2023/08/07 03:33:06;;;;;;;4.45;1.70;;;11.10;99.90;;;10.60;100.00;97162.19;5037504;28;20405;-36
2023/08/07 03:35:32;;;;;;;3.97;1.60;;;11.10;99.90;;;10.57;100.00;97152.66;5035190;28;20111;-37
2023/08/07 03:37:58;;;;;;;6.75;1.60;;;11.10;99.90;;;10.51;100.00;97139.69;5033976;28;20033;-36
2023/08/07 03:40:23;;;;;;;8.57;1.40;;;11.10;99.90;;;10.60;100.00;97152.50;5033254;28;20548;-36
2023/08/07 03:42:49;;;;;;;5.25;1.67;;;11.10;99.90;;;10.61;100.00;97140.19;5038851;28;20029;-36
2023/08/07 03:45:15;;;;;;;8.65;1.70;;;11.10;99.90;;;10.60;100.00;97151.66;5035430;28;20056;-37
2023/08/07 03:47:40;;;;;;;5.28;1.50;;;11.10;99.90;;;10.49;100.00;97129.22;5036129;28;20033;-36
2023/08/07 03:50:07;;;;;;;5.80;1.73;;;11.10;99.90;;;10.55;100.00;97150.97;5034774;28;20037;-36
2023/08/07 03:52:32;;;;;;;3.25;1.50;;;11.10;99.90;;;10.68;100.00;97162.75;5032711;28;20527;-36
2023/08/07 03:54:58;;;;;;;7.35;1.40;;;11.20;99.90;;;10.68;100.00;97147.78;5035669;28;20028;-36
2023/08/07 03:57:24;;;;;;;7.22;1.95;;;11.20;99.90;;;10.73;100.00;97158.16;5039544;28;20068;-36
2023/08/07 03:59:50;;;;;;;7.75;1.77;;;11.20;99.90;;;10.67;100.00;97163.66;5034023;28;20034;-36
2023/08/07 04:02:15;;;;;;;4.68;1.33;;;11.20;99.90;;;10.65;100.00;97165.50;5028739;28;20064;-36
2023/08/07 04:04:41;;;;;;;4.82;1.83;;;11.20;99.90;;;10.60;100.00;97167.47;5028692;28;20037;-37
2023/08/07 04:07:07;;;;;;;6.43;1.95;;;11.10;99.90;;;10.52;100.00;97167.78;5032320;28;20504;-37
2023/08/07 04:09:33;;;;;;;5.78;1.55;;;11.00;99.90;;;10.47;100.00;97165.31;5035048;28;20044;-38
2023/08/07 04:11:59;;;;;;;6.25;2.00;;;11.00;99.90;;;10.37;100.00;97166.59;5033836;28;20550;-37
2023/08/07 04:14:25;;;;;;;6.18;1.58;;;10.90;99.90;;;10.29;100.00;97155.50;5031609;28;20025;-37
2023/08/07 04:16:51;;;;;;;5.38;1.73;;;10.80;99.90;;;10.34;100.00;97172.03;5025120;28;21871;-37
2023/08/07 04:19:17;;;;;;;3.83;1.50;;;10.80;99.90;;;10.27;100.00;97158.19;5024901;28;20049;-37
2023/08/07 04:21:43;;;;;;;7.18;1.50;;;10.80;99.90;;;10.36;100.00;97170.19;5033775;28;20132;-37
2023/08/07 04:24:10;;;;;;;2.45;1.35;;;10.80;99.90;;;10.36;100.00;97172.81;5032573;28;20033;-37
2023/08/07 04:26:37;;;;;;;4.88;1.50;;;10.80;99.90;;;10.39;100.00;97182.38;5035544;28;20040;-37
2023/08/07 04:29:03;;;;;;;5.63;1.55;;;10.90;99.90;;;10.49;100.00;97186.38;5033279;28;20360;-37
2023/08/07 04:31:32;;;;;;;5.28;1.40;;;11.00;99.90;;;10.55;100.00;97178.22;5034065;28;20141;-37
2023/08/07 04:33:59;;;;;;;2.80;1.20;;;11.00;99.90;;;10.60;100.00;97184.16;5029582;28;20493;-37
2023/08/07 04:36:25;;;;;;;4.80;1.90;;;11.10;99.90;;;10.64;100.00;97182.25;5033366;28;20072;-37
2023/08/07 04:38:51;;;;;;;5.40;1.52;;;11.10;99.90;;;10.68;100.00;97189.97;5028615;28;20107;-37
2023/08/07 04:41:17;;;;;;;5.45;1.52;;;11.20;99.90;;;10.74;100.00;97186.22;5029281;28;20029;-37
2023/08/07 04:43:43;;;;;;;3.88;1.60;;;11.30;99.90;;;10.77;100.00;97186.13;5034635;28;20895;-37
2023/08/07 04:46:14;;;;;;;4.75;1.35;;;11.30;99.90;;;10.80;100.00;97211.50;5034125;28;20028;-37
2023/08/07 04:48:40;;;;;;;5.63;1.77;;;11.30;99.90;;;10.86;100.00;97196.28;5030765;28;20029;-37
2023/08/07 04:51:06;;;;;;;6.25;1.42;;;11.40;99.90;;;10.87;100.00;97200.66;5032749;28;20783;-37
2023/08/07 04:53:31;;;;;;;5.50;1.50;;;11.40;99.90;;;10.92;100.00;97186.41;5029623;28;20067;-37
2023/08/07 04:55:59;;;;;;;5.90;1.42;;;11.40;99.90;;;10.95;100.00;97194.19;5026858;28;20041;-37
2023/08/07 04:58:25;;;;;;;4.30;1.38;;;11.40;99.90;;;10.95;100.00;97184.50;5033268;28;20028;-37
2023/08/07 05:00:55;;;;;;;6.05;1.65;;;11.50;99.90;;;11.00;100.00;97201.00;5032259;28;20094;-37
2023/08/07 05:03:21;;;;;;;4.95;1.55;;;11.50;99.90;;;11.02;100.00;97199.13;5033686;28;20116;-36
2023/08/07 05:05:47;;;;;;;6.28;1.50;;;11.50;99.90;;;11.05;100.00;97199.03;5033479;28;20112;-39
2023/08/07 05:08:12;;;;;;;6.75;1.60;;;11.60;99.90;;;11.05;100.00;97190.22;5035667;28;20187;-37
2023/08/07 05:10:38;;;;;;;6.93;1.90;;;11.60;99.90;;;11.14;100.00;97196.91;5033339;28;20041;-38
2023/08/07 05:13:04;;;;;;;3.15;1.27;;;11.60;99.90;;;11.09;100.00;97181.28;5035825;28;20033;-37
2023/08/07 05:15:31;;;;;;;6.75;1.83;;;11.70;99.90;;;11.19;100.00;97200.22;5033312;28;20033;-37
2023/08/07 05:17:57;;;;;;;5.32;1.83;;;11.70;99.90;;;11.18;100.00;97201.13;5033753;28;20108;-37
2023/08/07 05:20:22;;;;;;;3.17;1.50;;;11.70;99.90;;;11.21;100.00;97198.34;5033041;28;20039;-37
2023/08/07 05:22:48;;;;;;;6.07;1.52;;;11.70;99.90;;;11.24;100.00;97204.38;5038280;28;20024;-37
2023/08/07 05:25:15;;;;;;;2.88;1.55;;;11.70;99.90;;;11.22;100.00;97195.66;5032248;28;20033;-37
2023/08/07 05:27:43;;;;;;;3.97;1.40;;;11.80;99.90;;;11.35;100.00;97218.91;5038195;28;20103;-37
2023/08/07 05:30:09;;;;;;;4.40;2.45;;;11.90;99.90;;;11.25;100.00;97190.25;5015625;28;20160;-37
2023/08/07 05:32:37;;;;;;;3.47;1.50;;;11.90;99.90;;;11.51;100.00;97211.16;5028733;28;20187;-37
2023/08/07 05:35:07;;;;;;;4.72;1.67;;;12.00;99.90;;;11.61;100.00;97209.81;5030588;28;20041;-38
2023/08/07 05:37:34;;;;;;;3.63;1.52;;;12.10;99.90;;;11.69;100.00;97215.63;5033537;28;20036;-37
2023/08/07 05:40:00;;;;;;;4.38;1.88;;;12.20;99.90;;;11.71;100.00;97220.84;5025618;28;20037;-37
2023/08/07 05:42:26;;;;;;;5.78;1.42;;;12.30;99.90;;;11.73;100.00;97213.72;5031059;28;20033;-37
2023/08/07 05:44:51;;;;;;;5.18;1.55;;;12.30;99.90;;;11.88;100.00;97231.53;5024971;28;20033;-37
2023/08/07 05:47:17;;;;;;;7.35;1.60;;;12.40;99.90;;;11.95;100.00;97222.44;5025640;28;20948;-38
2023/08/07 05:49:43;;;;;;;5.63;1.65;;;12.50;99.90;;;12.01;100.00;97223.94;5032104;28;20040;-36
2023/08/07 05:52:09;;;;;;;6.28;1.40;;;12.60;99.90;;;12.14;100.00;97225.09;5029065;28;20078;-37
2023/08/07 05:54:34;;;;;;;6.68;2.00;;;12.70;99.90;;;12.20;100.00;97227.47;5025558;28;20205;-37
2023/08/07 05:57:00;;;;;;;3.72;1.20;;;12.70;99.90;;;12.16;100.00;97225.00;5031057;28;20028;-37
2023/08/07 05:59:26;;;;;;;7.57;1.70;;;12.80;99.90;;;12.20;100.00;97222.16;5023209;28;20517;-37
2023/08/07 06:01:53;;;;;;;6.80;1.60;;;12.80;99.90;;;12.25;100.00;97221.09;5007529;28;20060;-37
2023/08/07 06:04:20;;;;;;;6.97;1.30;;;12.90;99.90;;;12.38;100.00;97220.44;5017397;28;20029;-37
2023/08/07 06:06:46;;;;;;;5.93;1.77;;;13.00;99.90;;;12.50;100.00;97224.28;5028149;22;20524;-37
2023/08/07 06:09:12;;;;;;;3.75;1.40;;;13.10;99.90;;;12.63;100.00;97247.50;5013026;28;20041;-37
2023/08/07 06:11:38;;;;;;;4.75;1.50;;;13.20;99.90;;;12.54;100.00;97225.00;5022697;28;20025;-38
2023/08/07 06:14:03;;;;;;;6.28;1.40;;;13.20;99.90;;;12.70;100.00;97263.03;5015223;28;20088;-37
2023/08/07 06:16:29;;;;;;;5.55;1.30;;;13.20;99.90;;;12.72;100.00;97239.13;5015832;28;20187;-38
2023/08/07 06:18:55;;;;;;;6.18;1.50;;;13.20;99.90;;;12.62;100.00;97249.31;5022452;28;20616;-37
2023/08/07 06:21:21;;;;;;;4.60;1.40;;;13.30;99.90;;;12.67;100.00;97265.84;5020652;28;20044;-37
2023/08/07 06:23:47;;;;;;;4.35;1.67;;;13.30;99.90;;;12.72;100.00;97265.59;5014725;28;20030;-37
2023/08/07 06:26:13;;;;;;;3.58;1.70;;;13.30;99.90;;;12.61;100.00;97274.03;5023631;28;20270;-37
2023/08/07 06:28:39;;;;;;;2.53;1.38;;;13.20;99.90;;;12.67;100.00;97273.78;5020259;28;20029;-37
2023/08/07 06:31:07;;;;;;;4.50;1.60;;;13.30;99.90;;;12.68;100.00;97275.47;5020099;28;20056;-37
2023/08/07 06:33:33;;;;;;;4.80;1.95;;;13.30;99.90;;;12.68;100.00;97264.03;5022173;28;20052;-38
2023/08/07 06:35:59;;;;;;;4.97;1.55;;;13.30;99.90;;;12.76;100.00;97256.59;5012735;28;20081;-38
2023/08/07 06:38:25;;;;;;;4.18;1.60;;;13.40;99.90;;;12.88;100.00;97257.78;5017954;28;20022;-38
2023/08/07 06:40:50;;;;;;;3.15;1.48;;;13.40;99.90;;;12.96;100.00;97256.47;5020454;28;20586;-38
2023/08/07 06:43:16;;;;;;;4.30;1.45;;;13.50;99.90;;;12.98;100.00;97270.50;5016648;28;20052;-38
2023/08/07 06:45:42;;;;;;;4.13;1.40;;;13.60;99.90;;;12.92;100.00;97254.91;5017648;28;20028;-37
2023/08/07 06:48:08;;;;;;;3.63;1.48;;;13.60;99.90;;;12.97;100.00;97268.81;5016899;28;20033;-39
2023/08/07 06:50:33;;;;;;;5.72;1.73;;;13.60;99.90;;;13.02;100.00;97267.72;5021927;28;20060;-37
2023/08/07 06:52:59;;;;;;;3.67;1.40;;;13.60;99.90;;;13.17;100.00;97270.47;5013537;28;20038;-38
2023/08/07 06:55:26;;;;;;;3.10;1.50;;;13.70;99.90;;;13.39;100.00;97266.78;5012956;28;20033;-40
2023/08/07 06:57:51;;;;;;;4.82;1.30;;;13.90;99.90;;;13.46;100.00;97269.94;5013986;28;20737;-39
2023/08/07 07:00:17;;;;;;;7.82;1.80;;;14.10;99.90;;;13.62;100.00;97280.63;5006057;28;20037;-39
2023/08/07 07:02:43;;;;;;;1.63;1.20;;;14.20;99.90;;;13.61;100.00;97273.63;5013679;28;20026;-38
2023/08/07 07:05:09;;;;;;;3.53;1.15;;;14.30;99.90;;;13.67;100.00;97283.91;5018717;28;20030;-38
2023/08/07 07:07:35;;;;;;;3.47;1.50;;;14.30;99.90;;;14.01;100.00;97287.47;5018698;28;20026;-38
2023/08/07 07:10:01;;;;;;;2.85;1.38;;;14.50;99.90;;;14.33;100.00;97283.09;5020470;28;20085;-37
2023/08/07 07:12:27;;;;;;;4.15;1.50;;;14.80;99.90;;;14.36;91.17;97284.75;5017247;28;20026;-38
2023/08/07 07:14:53;;;;;;;3.60;1.38;;;15.00;99.90;;;14.10;96.37;97268.41;5009412;28;20045;-38
2023/08/07 07:17:19;;;;;;;4.78;1.58;;;14.90;99.90;;;14.18;96.24;97284.78;5014341;28;20022;-38
2023/08/07 07:19:45;;;;;;;2.47;1.20;;;14.90;99.90;;;13.98;95.01;97290.25;5018323;28;21025;-39
2023/08/07 07:22:10;;;;;;;2.47;0.95;;;14.70;99.90;;;13.94;100.00;97294.88;5015206;28;20029;-38
2023/08/07 07:24:36;;;;;;;2.95;1.20;;;14.60;99.90;;;13.89;100.00;97292.47;5017311;28;20361;-38
2023/08/07 07:27:02;;;;;;;2.85;1.30;;;14.60;99.90;;;13.79;100.00;97290.38;5016401;28;20074;-37
2023/08/07 07:29:28;;;;;;;4.35;1.20;;;14.60;99.90;;;13.77;100.00;97300.22;5011295;28;20033;-37
2023/08/07 07:31:55;;;;;;;3.80;1.23;;;14.50;99.90;;;13.66;100.00;97274.25;5008313;28;20084;-38
2023/08/07 07:34:21;;;;;;;3.28;1.27;;;14.40;99.90;;;13.68;100.00;97296.22;5010292;28;20026;-38
2023/08/07 07:36:46;;;;;;;3.83;1.42;;;14.40;99.90;;;13.72;100.00;97308.38;5005885;28;20030;-38
2023/08/07 07:39:12;;;;;;;4.30;1.33;;;14.40;99.90;;;13.73;100.00;97310.97;5002342;28;20039;-39
2023/08/07 07:41:38;;;;;;;2.95;1.10;;;14.40;99.90;;;13.78;100.00;97305.41;5014648;28;20025;-38
2023/08/07 07:44:04;;;;;;;2.75;1.17;;;14.40;99.90;;;13.98;100.00;97308.81;5017936;28;22344;-38
2023/08/07 07:46:31;;;;;;;7.10;1.40;;;14.60;99.90;;;14.17;100.00;97312.22;5003008;28;20025;-38
2023/08/07 07:48:57;;;;;;;2.70;1.30;;;14.80;99.90;;;14.20;99.54;97301.47;5020039;28;20037;-38
2023/08/07 07:51:23;;;;;;;3.72;1.30;;;14.90;99.90;;;14.27;100.00;97300.19;5012488;28;20057;-38
2023/08/07 07:53:49;;;;;;;4.78;1.10;;;15.00;99.90;;;14.48;100.00;97313.22;5008588;28;20430;-38
2023/08/07 07:56:14;;;;;;;2.95;1.35;;;15.10;99.90;;;14.51;98.86;97305.97;5010839;28;20029;-38
2023/08/07 07:58:41;;;;;;;2.03;1.20;;;15.10;99.90;;;14.48;94.17;97303.50;5012078;28;20576;-40
2023/08/07 08:01:08;;;;;;;4.15;1.20;;;15.20;99.90;;;14.61;97.71;97316.13;5000768;28;20034;-38
2023/08/07 08:03:34;;;;;;;3.28;1.23;;;15.30;99.90;;;14.66;100.00;97322.03;5000954;28;20018;-38
2023/08/07 08:06:00;;;;;;;2.17;1.15;;;15.30;99.90;;;14.69;92.51;97328.03;5007054;28;20036;-38
2023/08/07 08:08:26;;;;;;;3.15;1.15;;;15.30;99.90;;;14.23;87.04;97322.53;5009020;28;20041;-38
2023/08/07 08:10:52;;;;;;;4.03;1.30;;;15.00;99.90;;;14.32;93.63;97329.16;5010892;28;20126;-38
2023/08/07 08:13:18;;;;;;;1.45;1.02;;;14.90;99.90;;;14.08;88.95;97337.44;5019876;28;20041;-38
2023/08/07 08:15:44;;;;;;;3.53;1.27;;;14.80;99.90;;;13.94;96.00;97327.56;5010833;28;20034;-37
2023/08/07 08:18:11;;;;;;;2.45;1.25;;;14.60;99.90;;;13.87;91.14;97328.81;5007750;28;20037;-37
2023/08/07 08:20:37;;;;;;;1.52;1.05;;;14.50;99.90;;;13.85;89.54;97333.31;5020625;28;20140;-37
2023/08/07 08:23:04;;;;;;;2.65;1.40;;;14.50;99.90;;;13.91;95.66;97338.31;5016206;28;20025;-38
2023/08/07 08:25:30;;;;;;;3.70;1.13;;;14.50;99.90;;;14.14;100.00;97338.94;5014003;28;20078;-39
2023/08/07 08:27:56;;;;;;;2.90;1.33;;;14.70;99.90;;;14.25;90.74;97341.88;5013100;28;20030;-38
2023/08/07 08:30:22;;;;;;;2.05;1.05;;;14.80;99.90;;;14.39;89.45;97327.00;5013719;28;20049;-39
2023/08/07 08:32:48;;;;;;;2.08;1.10;;;15.00;99.90;;;14.63;96.03;97341.63;5020391;28;20052;-37
2023/08/07 08:35:13;;;;;;;4.45;1.20;;;15.10;99.90;;;14.77;89.90;97330.28;5020135;28;20034;-38
2023/08/07 08:37:40;;;;;;;2.85;1.20;;;15.30;99.90;;;14.88;92.10;97322.56;5014151;28;20038;-38
2023/08/07 08:40:08;;;;;;;2.47;1.30;;;15.50;99.90;;;15.12;93.05;97338.06;5016124;28;20044;-39
2023/08/07 08:42:35;;;;;;;2.33;1.20;;;15.60;99.90;;;15.04;80.25;97358.91;5014033;28;20491;-39
2023/08/07 08:45:03;;;;;;;2.97;1.05;;;15.60;99.90;;;15.08;74.56;97339.19;5006020;28;20565;-39
2023/08/07 08:47:32;;;;;;;3.47;0.90;;;15.70;99.90;;;15.47;81.49;97340.53;5016874;28;20038;-38
2023/08/07 08:50:14;;;;;;;1.92;0.90;;;15.90;99.90;;;15.67;76.99;97336.72;5017291;28;20037;-38
2023/08/07 08:52:43;;;;;;;1.25;0.95;;;16.20;99.90;;;16.06;72.08;97345.09;5022539;28;20047;-38
2023/08/07 08:55:10;;;;;;;1.80;1.00;;;16.50;99.90;;;16.06;66.12;97348.63;5021404;28;20108;-40
2023/08/07 08:57:39;;;;;;;1.23;0.80;;;16.70;99.90;;;15.98;64.45;97356.22;5017150;28;20033;-38
2023/08/07 09:00:31;;;;;;;3.58;1.00;;;16.70;99.90;;;15.86;63.33;97354.28;4997174;28;20045;-38
2023/08/07 09:02:58;;;;;;;3.97;0.90;;;16.60;99.90;;;15.78;64.26;97352.91;5016920;28;20041;-39
2023/08/07 09:05:24;;;;;;;2.03;1.05;;;16.50;99.90;;;16.06;73.24;97350.41;5016088;28;20033;-39
2023/08/07 09:07:50;;;;;;;1.45;0.80;;;16.60;99.90;;;16.28;69.03;97357.97;5016195;28;20033;-38
2023/08/07 09:10:16;;;;;;;2.30;1.25;;;16.80;99.90;;;16.28;66.18;97360.66;5017122;28;20137;-39
2023/08/07 09:12:51;;;;;;;1.63;0.80;;;16.90;99.90;;;16.50;74.78;97350.38;5014818;28;20036;-37
2023/08/07 09:15:20;;;;;;;3.15;1.13;;;17.10;99.90;;;16.66;75.30;97352.94;5014941;28;20099;-39
2023/08/07 09:17:46;;;;;;;2.92;1.05;;;17.30;99.90;;;16.52;61.93;97348.47;5030508;28;20037;-37
2023/08/07 09:20:14;;;;;;;1.77;1.00;;;17.30;99.90;;;16.65;69.91;97363.69;5011673;28;20042;-37
2023/08/07 09:22:41;;;;;;;1.10;0.70;;;17.30;99.90;;;16.52;67.65;97356.47;5015175;28;20029;-38
2023/08/07 09:25:09;;;;;;;3.03;0.85;;;17.30;99.90;;;16.54;66.99;97365.22;5017561;28;20116;-37
2023/08/07 09:27:39;;;;;;;2.78;1.10;;;17.20;99.90;;;16.70;68.97;97366.94;5017867;28;20343;-38
2023/08/07 09:30:10;;;;;;;6.50;1.00;;;17.30;99.90;;;16.75;74.32;97363.03;5010316;28;20045;-38
2023/08/07 09:32:36;;;;;;;2.40;1.15;;;17.40;99.90;;;16.68;68.18;97367.03;5005357;28;20431;-38
2023/08/07 09:35:08;;;;;;;2.55;0.90;;;17.20;99.90;;;16.61;69.38;97369.19;5012512;28;20089;-38
2023/08/07 09:37:36;;;;;;;2.92;0.85;;;17.20;99.90;;;16.74;67.61;97385.31;5011086;28;20091;-39
2023/08/07 09:40:02;;;;;;;3.22;1.02;;;17.40;99.90;;;16.81;63.85;97380.44;5018867;28;20037;-38
2023/08/07 09:42:32;;;;;;;1.13;0.88;;;17.50;99.90;;;16.88;65.78;97381.78;5005981;28;20094;-39
2023/08/07 09:45:02;;;;;;;2.65;1.00;;;17.60;99.90;;;17.13;65.77;97388.22;5015027;28;20029;-38
2023/08/07 09:47:29;;;;;;;2.20;1.00;;;17.80;99.90;;;17.45;63.61;97387.97;5020506;28;20033;-40
2023/08/07 09:49:56;;;;;;;4.32;0.90;;;18.00;99.90;;;17.35;60.76;97385.91;5028358;28;20037;-38
2023/08/07 09:52:22;;;;;;;2.90;1.02;;;18.10;99.90;;;17.38;57.40;97386.66;5025042;28;20056;-40
2023/08/07 09:54:47;;;;;;;2.42;1.02;;;18.10;99.90;;;17.22;59.37;97389.47;5027063;28;20124;-38
2023/08/07 09:57:14;;;;;;;4.30;1.10;;;18.00;99.90;;;17.24;61.38;97390.22;5024688;28;20041;-39
2023/08/07 09:59:40;;;;;;;1.17;0.80;;;17.90;99.90;;;17.31;62.29;97395.03;5025432;28;20247;-38
2023/08/07 10:02:08;;;;;;;2.03;1.00;;;17.90;99.90;;;17.22;59.67;97395.63;5024823;28;20136;-38
2023/08/07 10:04:35;;;;;;;3.47;1.00;;;17.80;99.90;;;16.84;56.88;97390.94;5026716;28;20030;-39
2023/08/07 10:07:02;;;;;;;1.67;1.10;;;17.70;99.90;;;16.85;64.75;97390.00;5013647;28;20116;-38
2023/08/07 10:09:28;;;;;;;1.63;0.88;;;17.50;99.90;;;16.89;59.13;97390.66;5024021;28;20090;-38
2023/08/07 10:11:55;;;;;;;4.63;1.20;;;17.50;99.90;;;16.97;58.52;97396.34;5027496;28;20133;-38
2023/08/07 10:14:22;;;;;;;2.30;1.00;;;17.60;99.90;;;17.11;59.93;97390.16;5010456;28;20040;-38